createdAt,value
2023-11-06T00:00:06.403Z,1.55
2023-11-06T00:02:34.187Z,1.23
2023-11-06T00:05:00.973Z,1.30
2023-11-06T00:07:27.688Z,1.58
2023-11-06T00:09:54.385Z,1.85
2023-11-06T00:12:21.198Z,1.50
2023-11-06T00:14:48.471Z,1.38
2023-11-06T00:17:15.456Z,2.47
2023-11-06T00:19:43.868Z,1.80
2023-11-06T00:22:11.324Z,1.50
2023-11-06T00:24:38.955Z,1.38
2023-11-06T00:27:05.749Z,1.88
2023-11-06T00:29:32.554Z,1.77
2023-11-06T00:31:59.978Z,1.50
2023-11-06T00:34:26.678Z,1.50
2023-11-06T00:36:53.395Z,1.45
2023-11-06T00:39:21.852Z,1.42
2023-11-06T00:41:48.637Z,1.40
2023-11-06T00:44:15.367Z,1.10
2023-11-06T00:46:42.099Z,1.85
2023-11-06T00:49:10.168Z,1.13
2023-11-06T00:51:38.292Z,1.23
2023-11-06T00:54:05.415Z,1.27
2023-11-06T00:56:32.155Z,1.20
2023-11-06T00:58:59.510Z,1.00
2023-11-06T01:01:27.351Z,0.70
2023-11-06T01:03:55.669Z,1.20
2023-11-06T01:06:23.096Z,2.38
2023-11-06T01:08:50.141Z,0.95
2023-11-06T01:11:17.197Z,0.65
2023-11-06T01:13:44.509Z,0.90
2023-11-06T01:16:11.195Z,1.30
2023-11-06T01:18:38.115Z,0.70
2023-11-06T01:21:06.245Z,0.85
2023-11-06T01:23:32.922Z,1.33
2023-11-06T01:25:59.680Z,1.42
2023-11-06T01:28:26.521Z,1.63
2023-11-06T01:30:53.452Z,0.88
2023-11-06T01:33:20.388Z,0.90
2023-11-06T01:35:47.162Z,1.08
2023-11-06T01:38:13.945Z,1.27
2023-11-06T01:40:40.631Z,1.30
2023-11-06T01:43:08.688Z,1.10
2023-11-06T01:45:37.085Z,1.30
2023-11-06T01:48:04.966Z,1.25
2023-11-06T01:50:35.166Z,1.45
2023-11-06T01:53:05.612Z,1.05
2023-11-06T01:57:59.540Z,1.45
2023-11-06T02:00:28.221Z,1.35
2023-11-06T02:02:55.237Z,1.60
2023-11-06T02:05:22.276Z,0.93
2023-11-06T02:07:49.054Z,1.33
2023-11-06T02:10:19.260Z,1.75
2023-11-06T02:12:46.467Z,1.13
2023-11-06T02:15:16.289Z,1.50
2023-11-06T02:17:46.224Z,1.20
2023-11-06T02:20:13.957Z,1.40
2023-11-06T02:22:45.540Z,1.30
2023-11-06T02:25:12.703Z,1.45
2023-11-06T02:27:41.336Z,1.40
2023-11-06T02:30:09.452Z,1.38
2023-11-06T02:32:36.497Z,1.50
2023-11-06T02:35:03.505Z,1.70
2023-11-06T02:37:30.252Z,1.65
2023-11-06T02:39:57.101Z,1.95
2023-11-06T02:42:23.751Z,1.63
2023-11-06T02:44:50.541Z,1.90
2023-11-06T02:47:18.614Z,2.25
2023-11-06T02:49:45.388Z,1.45
2023-11-06T02:52:13.403Z,1.92
2023-11-06T02:54:40.128Z,1.65
2023-11-06T02:57:06.896Z,2.20
2023-11-06T02:59:34.484Z,1.77
2023-11-06T03:02:04.496Z,2.10
2023-11-06T03:04:33.448Z,2.30
2023-11-06T03:07:00.404Z,1.35
2023-11-06T03:09:27.152Z,1.65
2023-11-06T03:11:53.852Z,1.65
2023-11-06T03:14:20.660Z,1.40
2023-11-06T03:16:49.030Z,1.52
2023-11-06T03:19:15.883Z,1.25
2023-11-06T03:21:42.577Z,1.25
2023-11-06T03:24:09.429Z,2.08
2023-11-06T03:26:36.190Z,1.42
2023-11-06T03:29:03.830Z,1.20
2023-11-06T03:31:30.663Z,1.50
2023-11-06T03:33:57.549Z,1.30
2023-11-06T03:36:25.448Z,1.27
2023-11-06T03:38:52.360Z,1.77
2023-11-06T03:41:19.436Z,1.33
2023-11-06T03:43:50.212Z,1.20
2023-11-06T03:46:17.077Z,1.90
2023-11-06T03:48:44.155Z,1.70
2023-11-06T03:51:11.058Z,1.70
2023-11-06T03:53:37.873Z,1.83
2023-11-06T03:56:04.958Z,1.13
2023-11-06T03:58:31.624Z,2.00
2023-11-06T04:00:58.315Z,1.77
2023-11-06T04:03:26.209Z,1.40
2023-11-06T04:05:54.106Z,1.40
2023-11-06T04:08:21.235Z,1.33
2023-11-06T04:10:49.338Z,1.25
2023-11-06T04:13:16.129Z,0.40
2023-11-06T04:15:42.872Z,0.95
2023-11-06T04:18:09.765Z,1.05
2023-11-06T04:20:36.692Z,1.15
2023-11-06T04:23:04.018Z,1.00
2023-11-06T04:25:30.701Z,0.60
2023-11-06T04:27:59.136Z,0.70
2023-11-06T04:30:25.894Z,1.10
2023-11-06T04:32:52.617Z,1.10
2023-11-06T04:35:19.967Z,0.90
2023-11-06T04:37:47.385Z,0.85
2023-11-06T04:40:14.264Z,1.15
2023-11-06T04:42:43.706Z,1.10
2023-11-06T04:45:10.573Z,1.10
2023-11-06T04:47:37.431Z,0.95
2023-11-06T04:50:04.797Z,1.35
2023-11-06T04:52:31.616Z,0.75
2023-11-06T04:54:58.358Z,0.82
2023-11-06T04:57:25.263Z,1.00
2023-11-06T04:59:52.070Z,0.93
2023-11-06T05:02:19.076Z,1.20
2023-11-06T05:04:45.956Z,0.75
2023-11-06T05:07:12.804Z,0.90
2023-11-06T05:09:39.543Z,0.93
2023-11-06T05:12:07.193Z,0.73
2023-11-06T05:14:33.962Z,0.90
2023-11-06T05:17:00.920Z,0.98
2023-11-06T05:19:27.635Z,0.65
2023-11-06T05:21:55.434Z,0.50
2023-11-06T05:24:23.170Z,0.80
2023-11-06T05:26:50.275Z,0.40
2023-11-06T05:29:17.068Z,0.50
2023-11-06T05:31:43.768Z,0.75
2023-11-06T05:34:10.562Z,0.80
2023-11-06T05:36:37.352Z,0.47
2023-11-06T05:39:05.551Z,0.60
2023-11-06T05:41:32.423Z,0.73
2023-11-06T05:43:59.258Z,0.52
2023-11-06T05:46:26.535Z,0.68
2023-11-06T05:48:53.309Z,0.57
2023-11-06T05:51:20.415Z,0.57
2023-11-06T05:53:47.113Z,0.50
2023-11-06T05:56:13.926Z,0.75
2023-11-06T05:58:40.728Z,0.65
2023-11-06T06:01:07.522Z,1.10
2023-11-06T06:03:34.270Z,0.60
2023-11-06T06:06:01.122Z,0.57
2023-11-06T06:08:27.912Z,0.82
2023-11-06T06:10:54.707Z,0.75
2023-11-06T06:13:21.721Z,1.00
2023-11-06T06:15:48.428Z,0.88
2023-11-06T06:18:15.293Z,1.10
2023-11-06T06:20:42.171Z,0.70
2023-11-06T06:23:09.457Z,1.10
2023-11-06T06:25:37.509Z,0.90
2023-11-06T06:28:05.628Z,0.90
2023-11-06T06:30:32.519Z,1.25
2023-11-06T06:32:59.299Z,1.02
2023-11-06T06:35:26.260Z,1.20
2023-11-06T06:37:53.054Z,1.10
2023-11-06T06:40:21.277Z,1.17
2023-11-06T06:42:48.508Z,1.30
2023-11-06T06:45:15.288Z,1.40
2023-11-06T06:47:42.136Z,1.23
2023-11-06T06:50:09.932Z,1.08
2023-11-06T06:52:36.928Z,1.58
2023-11-06T06:55:03.756Z,1.77
2023-11-06T06:57:30.912Z,1.50
2023-11-06T06:59:57.564Z,1.23
2023-11-06T07:02:24.458Z,1.25
2023-11-06T07:04:51.200Z,1.10
2023-11-06T07:07:17.903Z,1.27
2023-11-06T07:09:44.602Z,1.48
2023-11-06T07:12:11.797Z,1.27
2023-11-06T07:14:39.398Z,1.20
2023-11-06T07:17:06.507Z,1.60
2023-11-06T07:19:33.374Z,1.35
2023-11-06T07:22:00.875Z,1.50
2023-11-06T07:24:28.737Z,1.10
2023-11-06T07:26:56.439Z,1.27
2023-11-06T07:29:24.453Z,1.10
2023-11-06T07:31:51.858Z,1.00
2023-11-06T07:34:23.821Z,0.88
2023-11-06T07:36:51.480Z,0.90
2023-11-06T07:39:19.561Z,1.27
2023-11-06T07:41:46.908Z,1.00
2023-11-06T07:44:13.859Z,0.73
2023-11-06T07:46:40.685Z,1.10
2023-11-06T07:49:07.764Z,0.93
2023-11-06T07:51:34.650Z,0.90
2023-11-06T07:54:01.496Z,1.17
2023-11-06T07:56:28.470Z,1.00
2023-11-06T07:58:56.544Z,0.60
2023-11-06T08:01:23.998Z,1.02
2023-11-06T08:03:50.924Z,0.80
2023-11-06T08:06:18.044Z,0.98
2023-11-06T08:08:44.829Z,1.08
2023-11-06T08:11:11.879Z,0.65
2023-11-06T08:13:38.771Z,0.65
2023-11-06T08:16:07.045Z,1.48
2023-11-06T08:18:35.764Z,1.30
2023-11-06T08:21:02.976Z,0.77
2023-11-06T08:23:31.191Z,0.88
2023-11-06T08:25:57.950Z,0.70
2023-11-06T08:28:25.033Z,0.60
2023-11-06T08:30:52.348Z,1.00
2023-11-06T08:33:19.801Z,0.90
2023-11-06T08:35:47.551Z,0.80
2023-11-06T08:38:14.845Z,0.85
2023-11-06T08:40:42.600Z,0.70
2023-11-06T08:43:10.011Z,0.47
2023-11-06T08:45:37.202Z,0.70
2023-11-06T08:48:04.309Z,0.70
2023-11-06T08:50:31.283Z,0.75
2023-11-06T08:52:58.384Z,0.70
2023-11-06T08:55:25.799Z,0.63
2023-11-06T08:57:52.759Z,0.57
2023-11-06T09:00:20.166Z,0.98
2023-11-06T09:02:48.740Z,1.20
2023-11-06T09:05:18.061Z,1.50
2023-11-06T09:07:46.660Z,0.65
2023-11-06T09:10:13.728Z,1.85
2023-11-06T09:12:41.103Z,1.60
2023-11-06T09:15:08.684Z,1.45
2023-11-06T09:17:35.704Z,1.00
2023-11-06T09:20:02.709Z,1.73
2023-11-06T09:22:29.476Z,1.75
2023-11-06T09:24:56.182Z,0.98
2023-11-06T09:27:22.968Z,1.75
2023-11-06T09:29:49.748Z,1.15
2023-11-06T09:32:18.236Z,1.67
2023-11-06T09:34:45.408Z,1.75
2023-11-06T09:37:12.073Z,1.88
2023-11-06T09:39:44.156Z,2.20
2023-11-06T09:42:14.202Z,1.70
2023-11-06T09:44:41.263Z,1.52
2023-11-06T09:47:08.742Z,1.73
2023-11-06T09:49:52.240Z,1.45
2023-11-06T09:52:20.265Z,1.70
2023-11-06T09:54:49.191Z,0.95
2023-11-06T09:57:17.565Z,1.30
2023-11-06T09:59:44.305Z,1.52
2023-11-06T10:02:11.748Z,1.65
2023-11-06T10:04:38.661Z,1.10
2023-11-06T10:07:05.776Z,0.70
2023-11-06T10:09:32.887Z,1.20
2023-11-06T10:12:16.181Z,1.25
2023-11-06T10:14:43.350Z,1.38
2023-11-06T10:17:10.142Z,1.20
2023-11-06T10:19:37.185Z,1.02
2023-11-06T10:22:16.819Z,0.75
2023-11-06T10:24:52.086Z,1.75
2023-11-06T10:27:27.054Z,0.88
2023-11-06T10:30:11.855Z,1.58
2023-11-06T10:32:38.869Z,1.75
2023-11-06T10:35:13.975Z,1.08
2023-11-06T10:37:45.015Z,1.65
2023-11-06T10:40:20.164Z,0.88
2023-11-06T10:42:49.759Z,1.20
2023-11-06T10:45:16.915Z,1.10
2023-11-06T10:47:48.796Z,0.90
2023-11-06T10:50:21.120Z,0.88
2023-11-06T10:52:56.017Z,1.27
2023-11-06T10:55:31.940Z,0.47
2023-11-06T10:58:01.339Z,1.17
2023-11-06T11:00:30.757Z,1.13
2023-11-06T11:02:59.812Z,0.95
2023-11-06T11:05:32.697Z,1.60
2023-11-06T11:08:02.016Z,1.13
2023-11-06T11:10:28.952Z,1.08
2023-11-06T11:12:58.790Z,1.38
2023-11-06T11:15:33.913Z,0.70
2023-11-06T11:18:14.510Z,0.73
2023-11-06T11:21:03.108Z,0.95
2023-11-06T11:23:42.041Z,1.08
2023-11-06T11:26:10.951Z,0.95
2023-11-06T11:29:01.345Z,1.20
2023-11-06T11:31:35.523Z,0.75
2023-11-06T11:34:03.549Z,0.77
2023-11-06T11:36:32.818Z,0.93
2023-11-06T11:39:17.405Z,0.80
2023-11-06T11:42:06.207Z,1.48
2023-11-06T11:44:33.538Z,0.90
2023-11-06T11:47:05.088Z,1.30
2023-11-06T11:49:42.315Z,1.00
2023-11-06T11:52:10.114Z,0.80
2023-11-06T11:54:38.567Z,1.15
2023-11-06T11:57:07.150Z,1.17
2023-11-06T11:59:47.196Z,1.30
2023-11-06T12:02:33.106Z,0.70
2023-11-06T12:05:11.949Z,0.85
2023-11-06T12:07:45.291Z,1.02
2023-11-06T12:10:14.908Z,1.00
2023-11-06T12:12:41.585Z,0.98
2023-11-06T12:15:11.667Z,1.05
2023-11-06T12:17:39.367Z,2.65
2023-11-06T12:20:11.605Z,1.13
2023-11-06T12:22:51.578Z,1.33
2023-11-06T12:25:34.982Z,1.73
2023-11-06T12:28:05.800Z,0.77
2023-11-06T12:30:37.352Z,1.05
2023-11-06T12:33:15.410Z,1.10
2023-11-06T12:35:43.638Z,1.20
2023-11-06T12:38:11.300Z,1.73
2023-11-06T12:40:46.034Z,0.93
2023-11-06T12:43:14.817Z,0.82
2023-11-06T12:45:43.017Z,1.08
2023-11-06T12:48:30.188Z,0.93
2023-11-06T12:51:12.354Z,0.73
2023-11-06T12:53:41.013Z,0.70
2023-11-06T12:56:08.816Z,0.80
2023-11-06T12:58:37.210Z,1.05
2023-11-06T13:01:18.365Z,0.70
2023-11-06T13:03:45.108Z,0.63
2023-11-06T13:06:14.172Z,0.60
2023-11-06T13:08:41.323Z,0.80
2023-11-06T13:11:10.183Z,0.70
2023-11-06T13:13:40.231Z,1.17
2023-11-06T13:16:10.111Z,1.10
2023-11-06T13:18:38.134Z,0.88
2023-11-06T13:21:20.170Z,0.50
2023-11-06T13:23:48.283Z,0.80
2023-11-06T13:26:16.790Z,0.75
2023-11-06T13:28:44.492Z,1.13
2023-11-06T13:31:14.951Z,0.85
2023-11-06T13:33:42.325Z,0.80
2023-11-06T13:36:12.228Z,0.70
2023-11-06T13:38:41.505Z,0.98
2023-11-06T13:41:12.912Z,0.73
2023-11-06T13:43:39.879Z,0.50
2023-11-06T13:46:07.965Z,0.80
2023-11-06T13:48:35.920Z,0.52
2023-11-06T13:51:11.515Z,0.60
2023-11-06T13:53:48.301Z,0.63
2023-11-06T13:56:25.847Z,0.80
2023-11-06T13:58:54.559Z,0.50
2023-11-06T14:01:32.939Z,0.52
2023-11-06T14:04:02.922Z,1.40
2023-11-06T14:06:32.334Z,0.98
2023-11-06T14:08:59.808Z,0.95
2023-11-06T14:11:28.780Z,0.40
2023-11-06T14:13:56.974Z,0.65
2023-11-06T14:16:24.317Z,0.80
2023-11-06T14:18:52.008Z,1.05
2023-11-06T14:21:19.783Z,0.85
2023-11-06T14:23:46.564Z,0.80
2023-11-06T14:26:15.012Z,1.10
2023-11-06T14:28:41.873Z,0.90
2023-11-06T14:31:08.568Z,0.93
2023-11-06T14:33:35.491Z,1.48
2023-11-06T14:36:02.953Z,1.13
2023-11-06T14:38:29.697Z,0.70
2023-11-06T14:40:57.181Z,0.60
2023-11-06T14:43:24.451Z,0.50
2023-11-06T14:45:54.517Z,0.45
2023-11-06T14:48:25.825Z,0.95
2023-11-06T14:50:53.062Z,0.65
2023-11-06T14:53:31.072Z,0.90
2023-11-06T14:56:02.033Z,0.98
2023-11-06T14:58:30.087Z,0.70
2023-11-06T15:00:57.174Z,0.50
2023-11-06T15:03:24.356Z,0.90
2023-11-06T15:05:51.296Z,0.40
2023-11-06T15:08:19.440Z,0.90
2023-11-06T15:10:48.958Z,0.55
2023-11-06T15:13:17.200Z,0.95
2023-11-06T15:15:43.998Z,0.90
2023-11-06T15:18:11.064Z,0.93
2023-11-06T15:20:37.822Z,1.52
2023-11-06T15:23:04.551Z,0.77
2023-11-06T15:25:37.529Z,0.88
2023-11-06T15:28:04.991Z,1.00
2023-11-06T15:30:31.733Z,0.88
2023-11-06T15:32:58.521Z,0.70
2023-11-06T15:35:26.388Z,1.15
2023-11-06T15:37:53.452Z,1.13
2023-11-06T15:40:20.298Z,1.13
2023-11-06T15:42:47.322Z,1.30
2023-11-06T15:45:14.656Z,0.90
2023-11-06T15:47:41.817Z,0.80
2023-11-06T15:50:09.064Z,1.30
2023-11-06T15:52:35.808Z,0.80
2023-11-06T15:55:03.127Z,1.10
2023-11-06T15:57:29.903Z,0.93
2023-11-06T15:59:56.634Z,1.13
2023-11-06T16:02:23.869Z,0.80
2023-11-06T16:04:50.532Z,1.27
2023-11-06T16:07:18.298Z,1.30
2023-11-06T16:09:46.036Z,1.23
2023-11-06T16:12:18.032Z,1.83
2023-11-06T16:14:44.994Z,1.33
2023-11-06T16:17:12.256Z,1.83
2023-11-06T16:19:39.352Z,1.10
2023-11-06T16:22:06.357Z,1.75
2023-11-06T16:24:34.601Z,1.05
2023-11-06T16:27:04.562Z,1.13
2023-11-06T16:29:33.198Z,1.20
2023-11-06T16:32:02.107Z,1.85
2023-11-06T16:34:39.163Z,1.65
2023-11-06T16:37:13.182Z,1.52
2023-11-06T16:39:42.135Z,1.77
2023-11-06T16:42:10.875Z,1.50
2023-11-06T16:44:38.253Z,1.63
2023-11-06T16:47:05.200Z,1.23
2023-11-06T16:49:32.127Z,1.23
2023-11-06T16:51:59.150Z,1.02
2023-11-06T16:54:28.738Z,0.85
2023-11-06T16:56:57.272Z,1.08
2023-11-06T16:59:23.981Z,1.27
2023-11-06T17:01:50.718Z,1.27
2023-11-06T17:04:18.084Z,1.20
2023-11-06T17:06:44.948Z,1.25
2023-11-06T17:09:15.457Z,1.15
2023-11-06T17:11:43.112Z,1.50
2023-11-06T17:14:11.064Z,1.17
2023-11-06T17:16:38.168Z,1.10
2023-11-06T17:19:06.289Z,1.48
2023-11-06T17:21:33.713Z,1.00
2023-11-06T17:24:03.110Z,1.02
2023-11-06T17:26:30.162Z,1.02
2023-11-06T17:28:58.252Z,1.98
2023-11-06T17:31:25.203Z,1.17
2023-11-06T17:33:55.012Z,1.08
2023-11-06T17:36:22.730Z,1.17
2023-11-06T17:38:50.263Z,1.30
2023-11-06T17:41:18.134Z,1.27
2023-11-06T17:43:45.097Z,1.10
2023-11-06T17:46:12.029Z,1.67
2023-11-06T17:48:43.316Z,1.50
2023-11-06T17:51:13.352Z,0.95
2023-11-06T17:53:41.891Z,1.23
2023-11-06T17:56:11.963Z,0.82
2023-11-06T17:58:40.062Z,1.10
2023-11-06T18:01:08.497Z,0.93
2023-11-06T18:03:39.586Z,0.93
2023-11-06T18:06:08.886Z,1.17
2023-11-06T18:08:37.367Z,1.00
2023-11-06T18:11:04.988Z,1.50
2023-11-06T18:13:33.082Z,1.15
2023-11-06T18:15:59.796Z,1.48
2023-11-06T18:18:28.621Z,1.48
2023-11-06T18:20:56.011Z,1.30
2023-11-06T18:23:23.021Z,1.42
2023-11-06T18:25:49.870Z,1.25
2023-11-06T18:28:16.567Z,0.88
2023-11-06T18:30:43.947Z,1.83
2023-11-06T18:33:11.415Z,1.10
2023-11-06T18:35:39.525Z,1.08
2023-11-06T18:38:07.887Z,1.27
2023-11-06T18:40:35.343Z,1.33
2023-11-06T18:43:02.476Z,1.15
2023-11-06T18:45:29.413Z,1.60
2023-11-06T18:47:56.788Z,1.60
2023-11-06T18:50:23.730Z,1.65
2023-11-06T18:52:50.620Z,1.60
2023-11-06T18:55:19.605Z,0.90
2023-11-06T18:57:48.624Z,1.80
2023-11-06T19:00:21.156Z,1.80
2023-11-06T19:02:49.876Z,1.42
2023-11-06T19:05:17.880Z,1.75
2023-11-06T19:07:45.023Z,1.50
2023-11-06T19:10:11.769Z,1.40
2023-11-06T19:12:38.536Z,1.60
2023-11-06T19:15:05.880Z,1.60
2023-11-06T19:17:32.922Z,1.48
2023-11-06T19:19:59.885Z,1.55
2023-11-06T19:22:26.798Z,1.60
2023-11-06T19:24:56.670Z,1.40
2023-11-06T19:27:25.665Z,1.20
2023-11-06T19:29:53.940Z,1.13
2023-11-06T19:32:20.917Z,1.40
2023-11-06T19:34:48.094Z,1.52
2023-11-06T19:37:14.990Z,1.90
2023-11-06T19:39:42.111Z,1.38
2023-11-06T19:42:08.873Z,1.30
2023-11-06T19:44:35.804Z,1.40
2023-11-06T19:47:02.662Z,1.58
2023-11-06T19:49:29.487Z,1.80
2023-11-06T19:51:57.293Z,1.65
2023-11-06T19:54:24.036Z,1.38
2023-11-06T19:56:50.806Z,1.35
2023-11-06T19:59:35.093Z,1.85
2023-11-06T20:02:05.164Z,1.50
2023-11-06T20:04:32.320Z,1.45
2023-11-06T20:06:59.735Z,1.73
2023-11-06T20:09:27.633Z,1.75
2023-11-06T20:11:54.477Z,1.73
2023-11-06T20:14:22.350Z,2.78
2023-11-06T20:16:52.518Z,2.25
2023-11-06T20:19:22.079Z,1.80
2023-11-06T20:21:48.983Z,2.17
2023-11-06T20:24:15.714Z,1.75
2023-11-06T20:26:42.486Z,1.83
2023-11-06T20:29:10.410Z,1.73
2023-11-06T20:31:37.227Z,2.00
2023-11-06T20:34:05.218Z,2.65
2023-11-06T20:36:32.157Z,2.20
2023-11-06T20:39:03.872Z,3.70
2023-11-06T20:41:31.523Z,2.40
2023-11-06T20:43:58.726Z,2.30
2023-11-06T20:46:25.428Z,2.25
2023-11-06T20:48:52.262Z,1.95
2023-11-06T20:51:19.004Z,2.30
2023-11-06T20:53:45.748Z,1.27
2023-11-06T20:56:13.548Z,1.35
2023-11-06T20:58:40.809Z,1.52
2023-11-06T21:01:08.793Z,2.13
2023-11-06T21:03:35.599Z,1.80
2023-11-06T21:06:03.532Z,1.55
2023-11-06T21:08:30.880Z,1.98
2023-11-06T21:10:57.659Z,1.67
2023-11-06T21:13:24.316Z,2.08
2023-11-06T21:15:51.396Z,1.98
2023-11-06T21:18:18.616Z,1.92
2023-11-06T21:20:48.302Z,2.00
2023-11-06T21:23:15.932Z,2.80
2023-11-06T21:25:43.099Z,2.13
2023-11-06T21:28:11.781Z,2.17
2023-11-06T21:30:38.519Z,2.08
2023-11-06T21:33:05.406Z,1.75
2023-11-06T21:35:32.559Z,1.83
2023-11-06T21:37:59.301Z,2.00
2023-11-06T21:40:26.358Z,2.60
2023-11-06T21:42:53.101Z,2.38
2023-11-06T21:45:21.461Z,1.60
2023-11-06T21:47:49.113Z,2.10
2023-11-06T21:52:43.206Z,1.50
2023-11-06T21:55:10.900Z,2.03
2023-11-06T21:57:38.774Z,2.05
2023-11-06T22:00:06.361Z,2.20
2023-11-06T22:02:33.293Z,2.20
2023-11-06T22:05:06.254Z,1.98
2023-11-06T22:07:36.556Z,2.15
2023-11-06T22:10:11.492Z,1.92
2023-11-06T22:12:42.153Z,2.00
2023-11-06T22:15:10.352Z,2.20
2023-11-06T22:17:37.831Z,2.08
2023-11-06T22:20:04.900Z,2.60
2023-11-06T22:22:33.556Z,2.25
2023-11-06T22:25:00.336Z,2.10
2023-11-06T22:27:27.997Z,2.10
2023-11-06T22:29:54.960Z,2.80
2023-11-06T22:32:22.095Z,4.45
2023-11-06T22:34:48.957Z,4.00
2023-11-06T22:37:16.489Z,3.15
2023-11-06T22:39:44.233Z,3.22
2023-11-06T22:42:10.941Z,3.30
2023-11-06T22:44:37.775Z,2.58
2023-11-06T22:47:04.895Z,2.40
2023-11-06T22:49:31.587Z,3.28
2023-11-06T22:51:59.767Z,2.90
2023-11-06T22:54:26.847Z,3.55
2023-11-06T22:56:53.617Z,2.97
2023-11-06T22:59:21.405Z,2.10
2023-11-06T23:01:48.415Z,2.90
2023-11-06T23:04:16.494Z,3.20
2023-11-06T23:06:43.299Z,4.07
2023-11-06T23:09:10.076Z,3.53
2023-11-06T23:11:37.633Z,3.38
2023-11-06T23:14:04.390Z,4.00
2023-11-06T23:16:33.422Z,4.75
2023-11-06T23:19:01.491Z,3.60
2023-11-06T23:21:28.284Z,2.80
2023-11-06T23:23:55.055Z,3.38
2023-11-06T23:26:21.932Z,2.80
2023-11-06T23:28:51.864Z,2.65
2023-11-06T23:31:18.930Z,2.60
2023-11-06T23:33:45.760Z,2.63
2023-11-06T23:36:12.714Z,2.38
2023-11-06T23:38:39.463Z,2.90
2023-11-06T23:41:06.199Z,2.53
2023-11-06T23:43:33.123Z,2.70
2023-11-06T23:45:59.797Z,2.13
2023-11-06T23:48:26.588Z,1.77
2023-11-06T23:50:54.859Z,2.28
2023-11-06T23:53:21.620Z,2.20
2023-11-06T23:55:48.349Z,2.35
2023-11-06T23:58:15.179Z,2.10
